This is the latest recevied weather packets stored in our database for station/object SP9WPN-12. If no packets are shown the sender has not sent any weather packets the latest 10 day(s).
| Time | Temp. | Humidity | Pressure | Rain* | Wind** | Luminosity | Snow |
|---|---|---|---|---|---|---|---|
| 1777864516 | 12.22° C | 50% | 1016.6 hPa | - | - | - | - |
| 1777863919 | 12.22° C | 51% | 1016.6 hPa | - | - | - | - |
| 1777863321 | 12.22° C | 51% | 1016.5 hPa | - | - | - | - |
| 1777862724 | 12.78° C | 50% | 1016.4 hPa | - | - | - | - |
| 1777862126 | 12.78° C | 48% | 1016.3 hPa | - | - | - | - |
| 1777861529 | 12.78° C | 49% | 1016.3 hPa | - | - | - | - |
| 1777860931 | 12.78° C | 49% | 1016.3 hPa | - | - | - | - |
| 1777860333 | 13.33° C | 48% | 1016.3 hPa | - | - | - | - |
| 1777859736 | 13.33° C | 48% | 1016.3 hPa | - | - | - | - |
| 1777859138 | 13.89° C | 47% | 1016.3 hPa | - | - | - | - |
| 1777858540 | 13.89° C | 47% | 1016.4 hPa | - | - | - | - |
| 1777857942 | 13.89° C | 47% | 1016.3 hPa | - | - | - | - |
| 1777857344 | 13.89° C | 47% | 1016.4 hPa | - | - | - | - |
| 1777856746 | 13.89° C | 47% | 1016.3 hPa | - | - | - | - |
| 1777856149 | 13.89° C | 47% | 1016.3 hPa | - | - | - | - |
| 1777855551 | 13.89° C | 47% | 1016.3 hPa | - | - | - | - |
| 1777854954 | 14.44° C | 47% | 1016.3 hPa | - | - | - | - |
| 1777854356 | 13.89° C | 48% | 1016.4 hPa | - | - | - | - |
| 1777853758 | 13.89° C | 49% | 1016.4 hPa | - | - | - | - |
| 1777853160 | 13.33° C | 50% | 1016.6 hPa | - | - | - | - |
| 1777852563 | 13.33° C | 50% | 1016.7 hPa | - | - | - | - |
| 1777851965 | 13.33° C | 50% | 1016.7 hPa | - | - | - | - |
| 1777851367 | 12.78° C | 52% | 1016.8 hPa | - | - | - | - |
| 1777850768 | 13.33° C | 50% | 1016.7 hPa | - | - | - | - |
| 1777850170 | 13.33° C | 51% | 1016.9 hPa | - | - | - | - |
* Rain since midnight (hover to see other rain measurements)
** Current wind speed in m/s (hover to see current wind gust speed)